Time;durP1;ratioP1;P1;durP2;ratioP2;P2;SDS_P1;SDS_P2;PMS_P1;PMS_P2;Temp;Humidity;BMP_temperature;BMP_pressure;BME280_temperature;BME280_humidity;BME280_pressure;Samples;Min_cycle;Max_cycle;Signal;HPM_P1;HPM_P2
2022/06/16 00:01:48;;;;;;;4.25;2.90;;;;;;;;;;5013778;28;98593;-70
2022/06/16 00:04:15;;;;;;;5.45;2.70;;;;;;;;;;5010247;28;99458;-70
2022/06/16 00:06:41;;;;;;;6.65;3.25;;;;;;;;;;5010320;28;97798;-70
2022/06/16 00:09:08;;;;;;;6.22;2.55;;;;;;;;;;5011030;28;99552;-71
2022/06/16 00:11:34;;;;;;;6.47;3.20;;;;;;;;;;5009961;28;99671;-71
2022/06/16 00:14:01;;;;;;;4.25;2.95;;;;;;;;;;5009480;28;100779;-71
2022/06/16 00:16:27;;;;;;;7.75;3.03;;;;;;;;;;5016131;28;100873;-71
2022/06/16 00:18:53;;;;;;;3.75;2.88;;;;;;;;;;5002387;28;100083;-71
2022/06/16 00:21:20;;;;;;;7.10;3.13;;;;;;;;;;5013188;28;99081;-71
2022/06/16 00:23:46;;;;;;;4.70;2.90;;;;;;;;;;5009686;28;100687;-71
2022/06/16 00:26:18;;;;;;;6.20;2.95;;;;;;;;;;5010877;28;98587;-71
2022/06/16 00:28:46;;;;;;;3.45;2.83;;;;;;;;;;5009412;28;99081;-71
2022/06/16 00:31:12;;;;;;;4.80;2.88;;;;;;;;;;5010847;28;98622;-71
2022/06/16 00:33:40;;;;;;;4.70;2.65;;;;;;;;;;5010691;28;98629;-71
2022/06/16 00:36:06;;;;;;;4.13;3.00;;;;;;;;;;5009655;28;98776;-71
2022/06/16 00:38:33;;;;;;;5.65;3.20;;;;;;;;;;5009430;28;101010;-71
2022/06/16 00:40:59;;;;;;;10.90;3.10;;;;;;;;;;5010375;28;98672;-71
2022/06/16 00:43:26;;;;;;;5.55;2.88;;;;;;;;;;5012640;28;98973;-71
2022/06/16 00:45:59;;;;;;;5.40;3.47;;;;;;;;;;5010067;28;98977;-71
2022/06/16 00:48:44;;;;;;;8.50;2.97;;;;;;;;;;5009951;28;99502;-71
2022/06/16 00:51:16;;;;;;;3.60;2.78;;;;;;;;;;5008943;28;101636;-71
2022/06/16 00:53:44;;;;;;;5.07;3.10;;;;;;;;;;5009335;28;98602;-71
2022/06/16 00:56:13;;;;;;;5.97;3.28;;;;;;;;;;5009940;28;98990;-71
2022/06/16 00:58:42;;;;;;;3.33;2.72;;;;;;;;;;4999436;28;99971;-71
2022/06/16 01:01:08;;;;;;;6.88;3.78;;;;;;;;;;5001538;28;98540;-71
2022/06/16 01:06:25;;;;;;;4.07;3.00;;;;;;;;;;5013221;28;99096;-71
2022/06/16 01:08:54;;;;;;;6.35;4.10;;;;;;;;;;5017558;28;98848;-71
2022/06/16 01:14:38;;;;;;;6.25;3.17;;;;;;;;;;5010381;28;98668;-71
2022/06/16 01:17:09;;;;;;;5.78;3.42;;;;;;;;;;5009047;28;98976;-71
2022/06/16 01:19:39;;;;;;;14.15;3.15;;;;;;;;;;5009405;28;100610;-71
2022/06/16 01:22:14;;;;;;;3.90;3.55;;;;;;;;;;5010249;28;97742;-71
2022/06/16 01:24:58;;;;;;;5.97;3.13;;;;;;;;;;5016118;28;98583;-71
2022/06/16 01:27:34;;;;;;;4.30;3.70;;;;;;;;;;5007979;28;99297;-71
2022/06/16 01:30:08;;;;;;;7.93;3.45;;;;;;;;;;5011226;28;99352;-71
2022/06/16 01:32:47;;;;;;;3.97;3.28;;;;;;;;;;5007167;28;101790;-71
2022/06/16 01:35:29;;;;;;;7.75;3.25;;;;;;;;;;5009817;28;98582;-71
2022/06/16 01:38:04;;;;;;;8.13;3.95;;;;;;;;;;5008676;28;99097;-72
2022/06/16 01:40:35;;;;;;;3.58;3.22;;;;;;;;;;5009114;28;100160;-71
2022/06/16 01:43:02;;;;;;;4.23;3.40;;;;;;;;;;5009927;28;99236;-71
2022/06/16 01:45:49;;;;;;;7.40;3.55;;;;;;;;;;4998326;28;100979;-71
2022/06/16 01:48:20;;;;;;;3.63;3.20;;;;;;;;;;4987731;28;99691;-71
2022/06/16 01:51:09;;;;;;;4.50;3.20;;;;;;;;;;5007793;28;100571;-71
2022/06/16 01:53:46;;;;;;;6.82;3.38;;;;;;;;;;5004201;28;99132;-71
2022/06/16 01:56:12;;;;;;;8.55;3.17;;;;;;;;;;5007339;28;99576;-71
2022/06/16 01:58:40;;;;;;;5.70;3.28;;;;;;;;;;5007576;28;101874;-71
2022/06/16 02:01:10;;;;;;;6.45;3.58;;;;;;;;;;5008601;28;99615;-71
2022/06/16 02:03:38;;;;;;;6.82;3.92;;;;;;;;;;5007229;28;98960;-71
2022/06/16 02:06:09;;;;;;;6.45;3.80;;;;;;;;;;5008050;28;98644;-71
2022/06/16 02:08:38;;;;;;;7.88;3.83;;;;;;;;;;5007358;28;101805;-71
2022/06/16 02:11:09;;;;;;;5.90;3.60;;;;;;;;;;5007481;28;98656;-71
2022/06/16 02:13:39;;;;;;;4.03;3.83;;;;;;;;;;5012195;28;98557;-71
2022/06/16 02:16:26;;;;;;;6.35;3.90;;;;;;;;;;5009376;28;99119;-71
2022/06/16 02:18:54;;;;;;;5.55;3.67;;;;;;;;;;5007784;28;101528;-71
2022/06/16 02:21:35;;;;;;;4.78;3.47;;;;;;;;;;5005811;28;102225;-71
2022/06/16 02:24:06;;;;;;;5.50;3.47;;;;;;;;;;5007503;28;98736;-71
2022/06/16 02:26:33;;;;;;;6.78;3.97;;;;;;;;;;5007355;28;101920;-71
2022/06/16 02:29:00;;;;;;;7.45;4.20;;;;;;;;;;5007787;28;99236;-71
2022/06/16 02:31:35;;;;;;;5.20;3.50;;;;;;;;;;5008816;28;98615;-71
2022/06/16 02:34:22;;;;;;;7.32;4.35;;;;;;;;;;5006993;28;99232;-71
2022/06/16 02:36:49;;;;;;;3.97;3.60;;;;;;;;;;5013194;27;102553;-71
2022/06/16 02:39:38;;;;;;;7.32;4.00;;;;;;;;;;5007023;28;98991;-71
2022/06/16 02:42:13;;;;;;;8.27;3.80;;;;;;;;;;4988874;28;99353;-71
2022/06/16 02:45:00;;;;;;;5.53;3.72;;;;;;;;;;5008396;28;98577;-71
2022/06/16 02:47:46;;;;;;;4.70;3.53;;;;;;;;;;5008212;28;99510;-71
2022/06/16 02:50:34;;;;;;;5.22;3.63;;;;;;;;;;5009028;28;99205;-71
2022/06/16 02:53:06;;;;;;;5.55;4.20;;;;;;;;;;5008681;28;98579;-71
2022/06/16 02:55:40;;;;;;;4.65;3.53;;;;;;;;;;5007166;28;99229;-71
2022/06/16 02:58:09;;;;;;;6.85;3.72;;;;;;;;;;5006844;28;100629;-71
2022/06/16 03:00:46;;;;;;;5.07;4.30;;;;;;;;;;5006808;28;98582;-71
2022/06/16 03:03:15;;;;;;;4.13;3.80;;;;;;;;;;5005467;28;101175;-71
2022/06/16 03:05:42;;;;;;;6.30;4.13;;;;;;;;;;5007166;28;97890;-71
2022/06/16 03:08:11;;;;;;;7.22;4.13;;;;;;;;;;5007553;28;99171;-71
2022/06/16 03:10:52;;;;;;;4.72;4.20;;;;;;;;;;5005374;28;102008;-71
2022/06/16 03:13:21;;;;;;;6.00;3.70;;;;;;;;;;5006211;28;99500;-71
2022/06/16 03:15:48;;;;;;;4.25;3.83;;;;;;;;;;5004171;28;101605;-71
2022/06/16 03:18:16;;;;;;;5.47;3.85;;;;;;;;;;5009081;28;101806;-71
2022/06/16 03:20:43;;;;;;;7.75;4.30;;;;;;;;;;5011324;28;98554;-71
2022/06/16 03:23:10;;;;;;;4.25;3.92;;;;;;;;;;5014598;28;98880;-71
2022/06/16 03:25:37;;;;;;;8.75;4.20;;;;;;;;;;5009608;28;98691;-71
2022/06/16 03:28:05;;;;;;;5.13;4.20;;;;;;;;;;5009817;28;100811;-71
2022/06/16 03:30:34;;;;;;;8.40;4.75;;;;;;;;;;5009101;28;100778;-71
2022/06/16 03:33:04;;;;;;;4.97;4.40;;;;;;;;;;5024012;27;98679;-71
2022/06/16 03:35:30;;;;;;;6.15;4.40;;;;;;;;;;5008802;28;98988;-70
2022/06/16 03:38:10;;;;;;;4.13;3.72;;;;;;;;;;5008436;28;100821;-71
2022/06/16 03:40:40;;;;;;;7.13;4.30;;;;;;;;;;5010084;28;98620;-71
2022/06/16 03:43:08;;;;;;;8.18;5.00;;;;;;;;;;5011631;28;99597;-71
2022/06/16 03:45:35;;;;;;;4.28;3.97;;;;;;;;;;5008563;28;101914;-71
2022/06/16 03:48:02;;;;;;;5.05;4.30;;;;;;;;;;5010081;28;100871;-71
2022/06/16 03:50:30;;;;;;;4.30;4.00;;;;;;;;;;5009228;28;101214;-71
2022/06/16 03:52:57;;;;;;;5.88;4.70;;;;;;;;;;5008780;28;98708;-71
2022/06/16 03:55:23;;;;;;;8.02;4.15;;;;;;;;;;5010132;28;101351;-71
2022/06/16 03:57:50;;;;;;;5.60;4.10;;;;;;;;;;5009235;28;100258;-71
2022/06/16 04:00:18;;;;;;;5.90;4.40;;;;;;;;;;5008953;28;99443;-71
2022/06/16 04:02:45;;;;;;;7.68;4.18;;;;;;;;;;5010092;28;99311;-71
2022/06/16 04:05:19;;;;;;;6.53;4.25;;;;;;;;;;5008647;28;100260;-70
2022/06/16 04:07:52;;;;;;;7.70;4.10;;;;;;;;;;5012364;28;99282;-71
2022/06/16 04:10:26;;;;;;;5.18;3.85;;;;;;;;;;5009306;28;101126;-71
2022/06/16 04:12:53;;;;;;;9.82;3.80;;;;;;;;;;5008411;28;98921;-71
2022/06/16 04:15:28;;;;;;;6.88;3.80;;;;;;;;;;5009808;28;101727;-71
2022/06/16 04:17:59;;;;;;;5.45;4.63;;;;;;;;;;5008805;28;101703;-71
2022/06/16 04:20:36;;;;;;;5.00;4.47;;;;;;;;;;5008733;28;97910;-71
2022/06/16 04:23:26;;;;;;;4.32;3.78;;;;;;;;;;5007767;28;98539;-71
2022/06/16 04:25:53;;;;;;;6.22;4.40;;;;;;;;;;5008731;28;101329;-71
2022/06/16 04:28:23;;;;;;;5.60;4.35;;;;;;;;;;5010406;28;99357;-70
2022/06/16 04:30:55;;;;;;;5.72;4.40;;;;;;;;;;5008726;28;99555;-71
2022/06/16 04:33:26;;;;;;;5.20;4.38;;;;;;;;;;5008499;28;99030;-71
2022/06/16 04:35:56;;;;;;;4.97;4.25;;;;;;;;;;5008864;28;101215;-71
2022/06/16 04:38:26;;;;;;;6.35;4.07;;;;;;;;;;5008717;28;101941;-71
2022/06/16 04:40:55;;;;;;;4.25;3.85;;;;;;;;;;5007991;28;98585;-71
2022/06/16 04:43:21;;;;;;;8.48;3.92;;;;;;;;;;5010609;28;100142;-71
2022/06/16 04:45:53;;;;;;;4.65;3.80;;;;;;;;;;5008698;28;101533;-71
2022/06/16 04:48:23;;;;;;;7.13;4.40;;;;;;;;;;5012966;28;98696;-71
2022/06/16 04:50:49;;;;;;;13.27;4.65;;;;;;;;;;5014318;28;101459;-71
2022/06/16 04:53:19;;;;;;;6.25;4.07;;;;;;;;;;5008409;28;99497;-71
2022/06/16 04:56:23;;;;;;;4.35;3.80;;;;;;;;;;4993315;28;100927;-71
2022/06/16 04:59:13;;;;;;;5.05;3.72;;;;;;;;;;4971539;28;98965;-71
2022/06/16 05:02:05;;;;;;;7.45;4.13;;;;;;;;;;5001120;28;98654;-71
2022/06/16 05:05:01;;;;;;;9.00;4.10;;;;;;;;;;5004548;28;98666;-71
2022/06/16 05:07:40;;;;;;;5.88;4.00;;;;;;;;;;5009634;28;99104;-71
2022/06/16 05:10:39;;;;;;;5.13;3.45;;;;;;;;;;4988183;28;99833;-71
2022/06/16 05:13:21;;;;;;;;;;;;;;;;;;5002972;28;98739;-71
2022/06/16 05:16:16;;;;;;;4.50;3.13;;;;;;;;;;4998846;28;99040;-71
2022/06/16 05:19:09;;;;;;;5.32;2.83;;;;;;;;;;5007153;28;99706;-71
2022/06/16 05:21:40;;;;;;;3.63;3.22;;;;;;;;;;5007213;28;100068;-71
2022/06/16 05:24:27;;;;;;;4.47;3.58;;;;;;;;;;4999651;28;99040;-71
2022/06/16 05:27:12;;;;;;;3.20;2.90;;;;;;;;;;5008725;28;100020;-71
2022/06/16 05:29:45;;;;;;;6.00;3.42;;;;;;;;;;4998427;28;99331;-71
2022/06/16 05:32:38;;;;;;;;;;;;;;;;;;5009794;28;98756;-71
2022/06/16 05:35:19;;;;;;;7.10;3.08;;;;;;;;;;5006469;28;100527;-71
2022/06/16 05:37:53;;;;;;;8.45;2.80;;;;;;;;;;5008826;28;102030;-71
2022/06/16 05:40:38;;;;;;;5.75;3.00;;;;;;;;;;5005092;28;98375;-71
2022/06/16 05:43:24;;;;;;;3.58;2.45;;;;;;;;;;5007156;28;101508;-71
2022/06/16 05:46:26;;;;;;;4.97;2.80;;;;;;;;;;4965947;28;99094;-71
2022/06/16 05:48:58;;;;;;;3.30;2.33;;;;;;;;;;5000321;28;101782;-71
2022/06/16 05:51:24;;;;;;;3.38;2.30;;;;;;;;;;5005886;28;99167;-72
2022/06/16 05:54:00;;;;;;;3.42;2.58;;;;;;;;;;5002406;28;99550;-72
2022/06/16 05:56:30;;;;;;;3.22;1.85;;;;;;;;;;5019643;27;100196;-72
2022/06/16 05:58:58;;;;;;;4.07;2.38;;;;;;;;;;4995757;28;100136;-72
2022/06/16 06:01:26;;;;;;;3.53;1.90;;;;;;;;;;4996551;28;100719;-72
2022/06/16 06:04:00;;;;;;;3.92;2.25;;;;;;;;;;5000309;28;101136;-72
2022/06/16 06:06:28;;;;;;;2.65;1.70;;;;;;;;;;4996279;28;97966;-72
2022/06/16 06:17:17;;;;;;;4.90;1.90;;;;;;;;;;5003597;28;101664;-72
2022/06/16 06:19:46;;;;;;;3.88;2.40;;;;;;;;;;4995417;28;99275;-72
2022/06/16 06:22:15;;;;;;;4.80;1.80;;;;;;;;;;5004907;28;98557;-72
2022/06/16 06:24:45;;;;;;;2.10;1.50;;;;;;;;;;5005415;28;100695;-72
2022/06/16 06:27:17;;;;;;;3.65;1.67;;;;;;;;;;5005635;28;99519;-72
2022/06/16 06:29:44;;;;;;;3.38;1.60;;;;;;;;;;5006793;28;101625;-72
2022/06/16 06:32:11;;;;;;;4.35;1.90;;;;;;;;;;5000334;28;100289;-74
2022/06/16 06:34:39;;;;;;;2.45;2.20;;;;;;;;;;5011206;27;98703;-72
2022/06/16 06:37:06;;;;;;;7.55;2.05;;;;;;;;;;4994247;28;100589;-73
2022/06/16 06:39:32;;;;;;;3.30;2.00;;;;;;;;;;4994187;28;102244;-72
2022/06/16 06:41:59;;;;;;;4.97;1.77;;;;;;;;;;4993412;28;99283;-72
2022/06/16 06:44:25;;;;;;;3.25;1.50;;;;;;;;;;4992036;28;99055;-72
2022/06/16 06:46:51;;;;;;;2.80;1.75;;;;;;;;;;4996768;28;99520;-72
2022/06/16 06:49:19;;;;;;;3.50;1.60;;;;;;;;;;4987539;28;99391;-73
2022/06/16 06:51:45;;;;;;;9.07;1.60;;;;;;;;;;4997590;28;100278;-72
2022/06/16 06:54:12;;;;;;;2.88;1.73;;;;;;;;;;5006005;28;99068;-72
2022/06/16 06:56:38;;;;;;;2.08;1.50;;;;;;;;;;4999756;28;99437;-73
2022/06/16 06:59:06;;;;;;;12.00;2.60;;;;;;;;;;5009567;28;100390;-73
2022/06/16 07:01:33;;;;;;;2.95;1.60;;;;;;;;;;4990067;28;99869;-73
2022/06/16 07:04:00;;;;;;;4.18;1.38;;;;;;;;;;5000658;28;99654;-73
2022/06/16 07:06:27;;;;;;;3.15;1.70;;;;;;;;;;4994711;28;99430;-73
2022/06/16 07:08:53;;;;;;;2.42;1.50;;;;;;;;;;5009653;28;98644;-73
2022/06/16 07:11:19;;;;;;;3.75;1.52;;;;;;;;;;4989876;28;99362;-73
2022/06/16 07:13:46;;;;;;;2.72;1.48;;;;;;;;;;4992045;28;100302;-73
2022/06/16 07:16:12;;;;;;;2.22;1.50;;;;;;;;;;4991243;28;99641;-72
2022/06/16 07:18:39;;;;;;;4.50;1.92;;;;;;;;;;4991349;28;100249;-72
2022/06/16 07:21:06;;;;;;;4.85;1.90;;;;;;;;;;4991492;28;99397;-72
2022/06/16 07:23:33;;;;;;;4.90;2.10;;;;;;;;;;4990325;28;100052;-73
2022/06/16 07:25:59;;;;;;;6.63;2.10;;;;;;;;;;4991565;28;99378;-72
2022/06/16 07:28:26;;;;;;;5.65;1.80;;;;;;;;;;4988482;28;99416;-73
2022/06/16 07:30:52;;;;;;;3.40;1.63;;;;;;;;;;4990418;28;100298;-71
2022/06/16 07:33:38;;;;;;;6.88;1.95;;;;;;;;;;4989349;28;100562;-71
2022/06/16 07:36:05;;;;;;;1.98;1.50;;;;;;;;;;4991803;28;99732;-71
2022/06/16 07:38:31;;;;;;;11.55;1.98;;;;;;;;;;4994015;28;100030;-71
2022/06/16 07:43:42;;;;;;;4.60;1.73;;;;;;;;;;4984167;28;100270;-71
2022/06/16 07:46:09;;;;;;;3.13;2.00;;;;;;;;;;4994378;28;99245;-71
2022/06/16 07:48:35;;;;;;;4.15;2.08;;;;;;;;;;4993817;28;99055;-70
2022/06/16 07:51:02;;;;;;;5.30;1.85;;;;;;;;;;5004326;28;99929;-71
2022/06/16 07:53:28;;;;;;;5.13;1.70;;;;;;;;;;5007054;28;100997;-71
2022/06/16 07:55:54;;;;;;;3.35;1.60;;;;;;;;;;5002143;28;99882;-71
2022/06/16 07:58:21;;;;;;;7.93;1.80;;;;;;;;;;4994776;28;99612;-72
2022/06/16 08:00:48;;;;;;;5.55;1.80;;;;;;;;;;5015191;28;100336;-71
2022/06/16 08:03:14;;;;;;;2.65;1.85;;;;;;;;;;5006770;28;99250;-72
2022/06/16 08:05:41;;;;;;;3.50;1.70;;;;;;;;;;4993266;28;100114;-72
2022/06/16 08:08:07;;;;;;;3.83;1.90;;;;;;;;;;4995200;28;98584;-71
2022/06/16 08:10:35;;;;;;;7.43;1.85;;;;;;;;;;5001309;28;99051;-71
2022/06/16 08:13:01;;;;;;;2.03;1.48;;;;;;;;;;4995384;27;99741;-72
2022/06/16 08:15:28;;;;;;;4.47;1.67;;;;;;;;;;5002101;28;98731;-72
2022/06/16 08:17:55;;;;;;;4.72;1.75;;;;;;;;;;4997773;28;101784;-72
2022/06/16 08:20:22;;;;;;;2.58;1.83;;;;;;;;;;4993139;28;98982;-72
2022/06/16 08:22:49;;;;;;;6.45;2.10;;;;;;;;;;4990390;28;100510;-71
2022/06/16 08:25:17;;;;;;;4.35;1.83;;;;;;;;;;5000312;28;100574;-71
2022/06/16 08:27:44;;;;;;;6.53;1.83;;;;;;;;;;5003775;28;99019;-72
2022/06/16 08:30:14;;;;;;;5.70;1.67;;;;;;;;;;5010417;28;100160;-71
2022/06/16 08:32:40;;;;;;;3.30;1.67;;;;;;;;;;4996502;28;100474;-71
2022/06/16 08:35:07;;;;;;;5.28;2.40;;;;;;;;;;4996745;28;98649;-71
2022/06/16 08:37:34;;;;;;;2.47;1.65;;;;;;;;;;5009684;28;100446;-72
2022/06/16 08:40:00;;;;;;;8.75;1.85;;;;;;;;;;4996818;28;98814;-72
2022/06/16 08:42:47;;;;;;;3.13;1.77;;;;;;;;;;4995818;28;100306;-71
2022/06/16 08:45:19;;;;;;;4.30;2.05;;;;;;;;;;5000000;28;100781;-71
2022/06/16 08:47:52;;;;;;;2.88;1.65;;;;;;;;;;5008653;28;98557;-71
2022/06/16 08:50:23;;;;;;;2.65;2.00;;;;;;;;;;4999508;28;99942;-72
2022/06/16 08:52:57;;;;;;;2.22;1.45;;;;;;;;;;4984222;28;100065;-72
2022/06/16 08:55:34;;;;;;;3.58;2.00;;;;;;;;;;4988477;28;98942;-72
2022/06/16 08:58:08;;;;;;;2.83;1.70;;;;;;;;;;4996435;28;99960;-72
2022/06/16 09:00:40;;;;;;;3.95;2.15;;;;;;;;;;5002223;28;99111;-72
2022/06/16 09:03:20;;;;;;;2.63;2.08;;;;;;;;;;4995127;28;99551;-72
2022/06/16 09:05:58;;;;;;;4.90;1.67;;;;;;;;;;4991749;28;100306;-72
2022/06/16 09:08:24;;;;;;;2.40;1.95;;;;;;;;;;4997271;28;99287;-73
2022/06/16 09:10:55;;;;;;;3.25;1.95;;;;;;;;;;4993695;28;99708;-73
2022/06/16 09:13:48;;;;;;;4.17;1.80;;;;;;;;;;5009012;28;99482;-72
2022/06/16 09:16:22;;;;;;;3.70;2.05;;;;;;;;;;5008658;28;98652;-73
2022/06/16 09:18:48;;;;;;;5.40;2.00;;;;;;;;;;5001980;28;98880;-72
2022/06/16 09:21:14;;;;;;;5.00;2.10;;;;;;;;;;5012364;28;99553;-72
2022/06/16 09:23:59;;;;;;;5.35;2.20;;;;;;;;;;5008625;28;98501;-72
2022/06/16 09:26:32;;;;;;;4.82;2.13;;;;;;;;;;5009278;28;97896;-72
2022/06/16 09:29:21;;;;;;;4.03;2.17;;;;;;;;;;5008723;28;98552;-72
2022/06/16 09:31:56;;;;;;;15.10;3.80;;;;;;;;;;4981369;28;99314;-72
2022/06/16 09:34:27;;;;;;;6.93;2.83;;;;;;;;;;5006781;28;101131;-72
2022/06/16 09:36:54;;;;;;;;;;;;;;;;;;5007124;28;98865;-72
2022/06/16 09:39:23;;;;;;;5.25;2.13;;;;;;;;;;4997741;28;127703;-72
2022/06/16 09:42:32;;;;;;;2.92;2.25;;;;;;;;;;5004706;28;100222;-72
2022/06/16 09:45:17;;;;;;;5.07;2.17;;;;;;;;;;4999885;28;99426;-72
2022/06/16 09:47:59;;;;;;;3.13;2.03;;;;;;;;;;4987370;28;99935;-72
2022/06/16 09:50:25;;;;;;;3.30;2.50;;;;;;;;;;4992033;27;98613;-72
2022/06/16 09:52:57;;;;;;;7.75;2.30;;;;;;;;;;4992369;28;99681;-72
2022/06/16 09:55:28;;;;;;;6.63;2.22;;;;;;;;;;4988844;28;99428;-72
2022/06/16 09:57:58;;;;;;;9.38;2.75;;;;;;;;;;4983173;27;99429;-72
2022/06/16 10:00:27;;;;;;;4.85;2.60;;;;;;;;;;4992303;28;101628;-72
2022/06/16 10:03:02;;;;;;;6.10;2.67;;;;;;;;;;4997050;28;99365;-72
2022/06/16 10:05:37;;;;;;;5.32;2.72;;;;;;;;;;5004363;28;99174;-72
2022/06/16 10:08:10;;;;;;;2.42;2.25;;;;;;;;;;5012404;28;99072;-72
2022/06/16 10:10:44;;;;;;;6.22;2.92;;;;;;;;;;5008938;28;98937;-71
2022/06/16 10:13:13;;;;;;;11.32;2.50;;;;;;;;;;5004980;28;99281;-71
2022/06/16 10:15:42;;;;;;;24.10;3.80;;;;;;;;;;4996819;28;99312;-71
2022/06/16 10:18:10;;;;;;;7.85;2.03;;;;;;;;;;4995825;28;99494;-72
2022/06/16 10:20:37;;;;;;;4.05;2.25;;;;;;;;;;4987232;27;98594;-71
2022/06/16 10:23:06;;;;;;;7.63;3.15;;;;;;;;;;4984041;28;99820;-71
2022/06/16 10:25:39;;;;;;;10.45;2.28;;;;;;;;;;4989408;28;100691;-71
2022/06/16 10:28:23;;;;;;;4.55;2.25;;;;;;;;;;4995145;28;100131;-71
2022/06/16 10:30:50;;;;;;;6.80;2.83;;;;;;;;;;4999264;28;99641;-71
2022/06/16 10:33:21;;;;;;;4.55;2.47;;;;;;;;;;4998768;28;101753;-72
2022/06/16 10:35:50;;;;;;;4.25;2.17;;;;;;;;;;4994312;28;100422;-72
2022/06/16 10:38:36;;;;;;;7.40;2.38;;;;;;;;;;4992284;28;99762;-72
2022/06/16 10:41:29;;;;;;;5.32;2.55;;;;;;;;;;4988433;27;99926;-72
2022/06/16 10:43:57;;;;;;;2.00;1.67;;;;;;;;;;4983839;28;98512;-72
2022/06/16 10:46:28;;;;;;;1.90;1.70;;;;;;;;;;4997293;28;98757;-72
2022/06/16 10:48:54;;;;;;;;;;;;;;;;;;4992128;28;99368;-72
2022/06/16 10:51:22;;;;;;;4.53;2.40;;;;;;;;;;4991552;28;130618;-72
2022/06/16 10:54:00;;;;;;;6.78;2.17;;;;;;;;;;4992438;28;98756;-72
2022/06/16 10:56:27;;;;;;;4.13;2.22;;;;;;;;;;4989529;28;101164;-72
2022/06/16 10:58:56;;;;;;;3.95;2.10;;;;;;;;;;4992255;28;100519;-71
2022/06/16 11:01:24;;;;;;;3.75;1.92;;;;;;;;;;4996265;28;99094;-72
2022/06/16 11:03:53;;;;;;;8.52;2.22;;;;;;;;;;4988130;28;100288;-71
2022/06/16 11:06:21;;;;;;;7.75;2.28;;;;;;;;;;4986233;28;99751;-72
2022/06/16 11:08:49;;;;;;;2.10;1.90;;;;;;;;;;4991459;28;100592;-72
2022/06/16 11:11:17;;;;;;;2.95;1.92;;;;;;;;;;4988336;28;100971;-71
2022/06/16 11:13:53;;;;;;;8.88;2.55;;;;;;;;;;4994392;28;98640;-71
2022/06/16 11:16:28;;;;;;;2.95;1.80;;;;;;;;;;4989663;28;100264;-71
2022/06/16 11:18:56;;;;;;;3.20;1.98;;;;;;;;;;4992647;28;98569;-71
2022/06/16 11:21:25;;;;;;;3.17;1.85;;;;;;;;;;4990624;28;100119;-71
2022/06/16 11:23:52;;;;;;;5.80;2.22;;;;;;;;;;4993418;28;100615;-71
2022/06/16 11:26:24;;;;;;;3.17;1.75;;;;;;;;;;4995158;28;98541;-71
2022/06/16 11:28:54;;;;;;;7.35;2.40;;;;;;;;;;4992531;28;99683;-70
2022/06/16 11:31:41;;;;;;;3.88;2.50;;;;;;;;;;5003437;28;99290;-70
2022/06/16 11:34:13;;;;;;;4.72;2.00;;;;;;;;;;4997184;28;97906;-70
2022/06/16 11:36:52;;;;;;;2.00;1.88;;;;;;;;;;4994285;28;99463;-70
2022/06/16 11:39:37;;;;;;;16.98;3.13;;;;;;;;;;5005489;28;99815;-70
2022/06/16 11:42:04;;;;;;;28.92;5.32;;;;;;;;;;5001100;28;99312;-69
2022/06/16 11:44:42;;;;;;;4.53;2.17;;;;;;;;;;4989938;28;99631;-72
2022/06/16 11:47:08;;;;;;;4.18;2.33;;;;;;;;;;4992577;28;98634;-73
2022/06/16 11:49:36;;;;;;;3.70;2.50;;;;;;;;;;4989980;28;99976;-71
2022/06/16 11:52:08;;;;;;;4.95;2.70;;;;;;;;;;4990374;28;100246;-70
2022/06/16 11:54:48;;;;;;;5.38;2.90;;;;;;;;;;4991498;28;98586;-70
2022/06/16 11:57:34;;;;;;;2.92;2.08;;;;;;;;;;4993893;28;100149;-71
2022/06/16 12:00:03;;;;;;;4.13;2.90;;;;;;;;;;5002834;28;98982;-71
2022/06/16 12:02:43;;;;;;;3.72;2.50;;;;;;;;;;4997129;28;98592;-70
2022/06/16 12:05:31;;;;;;;10.13;2.60;;;;;;;;;;4990205;28;100220;-70
2022/06/16 12:08:04;;;;;;;3.92;2.28;;;;;;;;;;4984211;28;100628;-71
2022/06/16 12:10:37;;;;;;;7.97;2.60;;;;;;;;;;4990587;28;99731;-71
2022/06/16 12:13:12;;;;;;;3.90;2.33;;;;;;;;;;4990530;28;100555;-70
2022/06/16 12:15:52;;;;;;;4.70;2.33;;;;;;;;;;4989609;28;98572;-70
2022/06/16 12:18:37;;;;;;;3.20;2.35;;;;;;;;;;4995364;28;99138;-71
2022/06/16 12:21:10;;;;;;;3.25;2.50;;;;;;;;;;4990051;28;99739;-69
2022/06/16 12:23:55;;;;;;;3.40;2.25;;;;;;;;;;4996663;28;98986;-71
2022/06/16 12:26:23;;;;;;;3.75;2.30;;;;;;;;;;4990804;28;99316;-71
2022/06/16 12:28:59;;;;;;;5.65;2.65;;;;;;;;;;4990464;28;98562;-70
2022/06/16 12:31:38;;;;;;;8.68;2.45;;;;;;;;;;5002262;28;99220;-70
2022/06/16 12:34:09;;;;;;;5.57;2.30;;;;;;;;;;5006661;28;101619;-70
2022/06/16 12:36:37;;;;;;;7.55;2.20;;;;;;;;;;4991263;28;98690;-69
2022/06/16 12:39:09;;;;;;;4.32;1.52;;;;;;;;;;4991862;28;99771;-70
2022/06/16 12:41:38;;;;;;;3.33;2.20;;;;;;;;;;4995979;28;99639;-70
2022/06/16 12:44:10;;;;;;;4.68;2.10;;;;;;;;;;5007673;28;98688;-71
2022/06/16 12:46:43;;;;;;;5.05;1.98;;;;;;;;;;4998735;28;99892;-70
2022/06/16 12:49:14;;;;;;;7.97;2.38;;;;;;;;;;4996280;28;99373;-70
2022/06/16 12:52:04;;;;;;;2.23;1.97;;;;;;;;;;4990869;28;99221;-70
2022/06/16 12:54:33;;;;;;;3.53;2.17;;;;;;;;;;4984067;28;100402;-71
2022/06/16 12:57:11;;;;;;;77.72;8.68;;;;;;;;;;4990303;28;98607;-71
2022/06/16 12:59:44;;;;;;;6.53;2.88;;;;;;;;;;5002116;28;99808;-71
2022/06/16 13:02:13;;;;;;;6.20;2.85;;;;;;;;;;4989995;28;100226;-71
2022/06/16 13:04:40;;;;;;;6.38;2.35;;;;;;;;;;4988822;28;98581;-71
2022/06/16 13:07:14;;;;;;;7.40;2.33;;;;;;;;;;4991499;28;100121;-71
2022/06/16 13:09:41;;;;;;;6.82;2.03;;;;;;;;;;4989432;28;98631;-70
2022/06/16 13:12:19;;;;;;;8.45;2.45;;;;;;;;;;4989320;28;101613;-70
2022/06/16 13:15:08;;;;;;;3.05;2.38;;;;;;;;;;4998297;28;100257;-71
2022/06/16 13:17:37;;;;;;;3.40;2.63;;;;;;;;;;4987482;28;97929;-71
2022/06/16 13:20:11;;;;;;;2.83;2.20;;;;;;;;;;4989877;28;98626;-70
2022/06/16 13:22:42;;;;;;;2.33;1.88;;;;;;;;;;4993676;28;100258;-70
2022/06/16 13:25:32;;;;;;;7.07;2.80;;;;;;;;;;4989409;28;99229;-70
2022/06/16 13:27:58;;;;;;;3.88;2.40;;;;;;;;;;4988665;28;100637;-70
2022/06/16 13:30:32;;;;;;;3.22;2.65;;;;;;;;;;4992430;28;100945;-70
2022/06/16 13:33:12;;;;;;;6.45;2.40;;;;;;;;;;4988815;28;99033;-70
2022/06/16 13:35:38;;;;;;;4.40;2.05;;;;;;;;;;4999205;28;100159;-70
2022/06/16 13:38:04;;;;;;;7.93;2.50;;;;;;;;;;4989985;28;101265;-70
2022/06/16 13:40:34;;;;;;;5.30;2.03;;;;;;;;;;4985313;28;99123;-69
2022/06/16 13:43:06;;;;;;;5.13;2.42;;;;;;;;;;4985509;28;100044;-69
2022/06/16 13:45:33;;;;;;;4.53;2.45;;;;;;;;;;4984485;28;98706;-71
2022/06/16 13:48:05;;;;;;;6.63;2.22;;;;;;;;;;4988568;28;99320;-71
2022/06/16 13:50:47;;;;;;;9.05;2.67;;;;;;;;;;4985204;28;100741;-71
2022/06/16 13:53:17;;;;;;;6.10;2.47;;;;;;;;;;4994607;28;99070;-71
2022/06/16 13:55:46;;;;;;;3.63;2.20;;;;;;;;;;4993670;28;99194;-71
2022/06/16 13:58:20;;;;;;;4.85;2.92;;;;;;;;;;4986159;28;99408;-70
2022/06/16 14:01:05;;;;;;;10.57;2.85;;;;;;;;;;4986322;28;100923;-70
2022/06/16 14:03:33;;;;;;;7.22;2.20;;;;;;;;;;4988919;28;99338;-70
2022/06/16 14:06:07;;;;;;;4.68;2.10;;;;;;;;;;4996580;28;99526;-70
2022/06/16 14:08:35;;;;;;;4.80;2.22;;;;;;;;;;4990001;28;100014;-71
2022/06/16 14:11:20;;;;;;;5.40;2.63;;;;;;;;;;4984700;28;101808;-71
2022/06/16 14:14:05;;;;;;;7.03;2.65;;;;;;;;;;4991532;28;100112;-71
2022/06/16 14:16:38;;;;;;;4.45;2.00;;;;;;;;;;5008834;28;99285;-71
2022/06/16 14:19:15;;;;;;;7.18;2.33;;;;;;;;;;5005184;28;99178;-71
2022/06/16 14:21:47;;;;;;;5.35;2.30;;;;;;;;;;5008730;28;99866;-71
2022/06/16 14:24:22;;;;;;;6.78;3.10;;;;;;;;;;4999213;28;100841;-71
2022/06/16 14:26:48;;;;;;;2.42;2.20;;;;;;;;;;4995276;28;99380;-71
2022/06/16 14:29:16;;;;;;;6.05;2.35;;;;;;;;;;5009274;28;99965;-71
2022/06/16 14:31:52;;;;;;;2.83;2.33;;;;;;;;;;4982734;28;100440;-71
2022/06/16 14:34:22;;;;;;;3.05;1.80;;;;;;;;;;4989607;28;99670;-71
2022/06/16 14:36:55;;;;;;;3.38;2.20;;;;;;;;;;4991687;28;99218;-71
2022/06/16 14:39:37;;;;;;;3.85;2.25;;;;;;;;;;4989139;28;100294;-71
2022/06/16 14:42:07;;;;;;;6.55;2.63;;;;;;;;;;4988314;28;100740;-71
2022/06/16 14:44:39;;;;;;;12.93;2.55;;;;;;;;;;4989492;28;100244;-71
2022/06/16 14:47:15;;;;;;;4.22;1.85;;;;;;;;;;4984773;28;98871;-71
2022/06/16 14:49:48;;;;;;;3.97;1.88;;;;;;;;;;4987766;28;99921;-70
2022/06/16 14:52:17;;;;;;;3.50;2.30;;;;;;;;;;4985011;28;100419;-71
2022/06/16 14:54:47;;;;;;;7.70;3.22;;;;;;;;;;4990728;28;98736;-71
2022/06/16 14:57:19;;;;;;;2.67;2.20;;;;;;;;;;4988299;28;99735;-71
2022/06/16 14:59:49;;;;;;;2.65;2.13;;;;;;;;;;4987572;28;99480;-72
2022/06/16 15:02:15;;;;;;;2.30;2.10;;;;;;;;;;4987126;28;100969;-71
2022/06/16 15:04:41;;;;;;;2.20;2.00;;;;;;;;;;4984328;28;100697;-71
2022/06/16 15:07:28;;;;;;;6.05;2.60;;;;;;;;;;4985617;28;99740;-70
2022/06/16 15:09:55;;;;;;;4.43;1.88;;;;;;;;;;4986999;28;99728;-72
2022/06/16 15:12:22;;;;;;;4.65;2.20;;;;;;;;;;4989666;28;100330;-70
2022/06/16 15:14:49;;;;;;;2.78;2.53;;;;;;;;;;4990613;28;99473;-71
2022/06/16 15:20:04;;;;;;;6.10;2.20;;;;;;;;;;4991741;28;100258;-71
2022/06/16 15:22:34;;;;;;;3.00;2.03;;;;;;;;;;4994665;28;98676;-71
2022/06/16 15:25:02;;;;;;;3.50;2.13;;;;;;;;;;4991932;28;99468;-72
2022/06/16 15:27:30;;;;;;;4.57;2.00;;;;;;;;;;5004027;28;98802;-70
2022/06/16 15:29:57;;;;;;;3.08;2.00;;;;;;;;;;4992850;28;99581;-71